BAW58L FACT-EGLL
Flight info
| Callsign | BAW58L |
|---|---|
| Flight time | N/A |
| Altitude | 33000 |
| Route | DCT KODES UQ43 DUSLA UN188 APGAS/N0499F340 UN188 UTVUM/N0504F330 UN188 XALVI/N0502F340 UN190 VMO/N0501F350 UN190 VNA/N0507F340 UR526 EXITO/N0500F360 UR526 LIKAD DCT RASOP UG861 ARASI DCT KOKAM UA604 ILBIP/N0492F380 UA604 AS UR978 BOD/N0481F390 UG362 BARKA/N0483F380 UA605 CSO UN854 SALMA DCT BAVON/N0485F400 DCT OLNUL DCT PADKO DCT MOPEM DCT CACHI DCT AVLON DCT OKRIX DCT BRY/N0492F360 DCT CLM DCT KOPOR DCT ABNUR DCT DIMAL DCT ALESO ALESO1H |
| Aircraft | A35K/H-SDE2E3GHIJ3J4J5LM1ORWXY/LB1D1 |
Departure
| Time | 2026-05-05 22:53 |
|---|---|
| Airport | Cape Town International Airport (FACT) |
Arrival
| Time | N/A |
|---|---|
| Airport | London Heathrow Airport (EGLL) |
| Time | Latitude | Longitude | Altitude | Speed | Heading |
|---|---|---|---|---|---|
| 2026-05-05 22:32 | -33.96767 | 18.59768 | 173 ft | 0 kts | 255° |
| 2026-05-05 22:45 | -33.96767 | 18.59769 | 173 ft | 1 kts | 255° |
| 2026-05-05 22:46 | -33.96761 | 18.59797 | 173 ft | 4 kts | 256° |
| 2026-05-05 22:46 | -33.96755 | 18.59825 | 173 ft | 4 kts | 261° |
| 2026-05-05 22:46 | -33.96759 | 18.59851 | 173 ft | 4 kts | 324° |
| 2026-05-05 22:46 | -33.96783 | 18.59864 | 173 ft | 4 kts | 346° |
| 2026-05-05 22:47 | -33.96791 | 18.59866 | 173 ft | 0 kts | 345° |
| 2026-05-05 22:49 | -33.96769 | 18.59859 | 173 ft | 5 kts | 345° |
| 2026-05-05 22:50 | -33.96695 | 18.59834 | 173 ft | 16 kts | 344° |
| 2026-05-05 22:50 | -33.96558 | 18.59791 | 173 ft | 21 kts | 348° |
| 2026-05-05 22:50 | -33.96416 | 18.59758 | 173 ft | 23 kts | 353° |
| 2026-05-05 22:50 | -33.96235 | 18.59737 | 173 ft | 27 kts | 22° |
| 2026-05-05 22:51 | -33.96112 | 18.59864 | 173 ft | 10 kts | 45° |
| 2026-05-05 22:51 | -33.96077 | 18.59907 | 173 ft | 0 kts | 46° |
| 2026-05-05 22:51 | -33.96055 | 18.59944 | 173 ft | 13 kts | 65° |
| 2026-05-05 22:51 | -33.96073 | 18.60023 | 171 ft | 9 kts | 158° |
| 2026-05-05 22:52 | -33.96180 | 18.60060 | 171 ft | 24 kts | 165° |
| 2026-05-05 22:52 | -33.96506 | 18.60165 | 177 ft | 77 kts | 166° |
| 2026-05-05 22:52 | -33.97209 | 18.60389 | 165 ft | 131 kts | 165° |
| 2026-05-05 22:52 | -33.98247 | 18.60722 | 188 ft | 174 kts | 167° |
| 2026-05-05 22:53 | -33.99412 | 18.61097 | 687 ft | 174 kts | 166° |
| 2026-05-05 22:53 | -34.00588 | 18.61471 | 1240 ft | 177 kts | 166° |
| 2026-05-05 22:53 | -34.01726 | 18.62182 | 1425 ft | 198 kts | 131° |
| 2026-05-05 22:53 | -34.02188 | 18.63718 | 1679 ft | 212 kts | 88° |
| 2026-05-05 22:54 | -34.01603 | 18.65427 | 1960 ft | 228 kts | 46° |
| 2026-05-05 22:54 | -34.00184 | 18.66319 | 2251 ft | 241 kts | 7° |
| 2026-05-05 22:54 | -33.98456 | 18.66483 | 2573 ft | 256 kts | 6° |
| 2026-05-05 22:54 | -33.96659 | 18.66763 | 3120 ft | 263 kts | 8° |
| 2026-05-05 22:55 | -33.94837 | 18.67080 | 3726 ft | 266 kts | 8° |
| 2026-05-05 22:55 | -33.93007 | 18.67376 | 4322 ft | 269 kts | 7° |
| 2026-05-05 22:55 | -33.91135 | 18.67639 | 4921 ft | 273 kts | 6° |
| 2026-05-05 22:55 | -33.89249 | 18.67870 | 5512 ft | 276 kts | 5° |
| 2026-05-05 22:56 | -33.87318 | 18.68081 | 6114 ft | 278 kts | 5° |
| 2026-05-05 22:56 | -33.85379 | 18.68281 | 6708 ft | 281 kts | 4° |
| 2026-05-05 22:56 | -33.83417 | 18.68478 | 7297 ft | 284 kts | 4° |
| 2026-05-05 22:56 | -33.81437 | 18.68677 | 7886 ft | 287 kts | 4° |
| 2026-05-05 22:57 | -33.79439 | 18.68880 | 8473 ft | 290 kts | 4° |
| 2026-05-05 22:57 | -33.77414 | 18.69087 | 9050 ft | 293 kts | 4° |
| 2026-05-05 22:57 | -33.75386 | 18.69295 | 9602 ft | 296 kts | 4° |
| 2026-05-05 22:57 | -33.73326 | 18.69508 | 10142 ft | 299 kts | 5° |
| 2026-05-05 22:58 | -33.71237 | 18.69724 | 10418 ft | 312 kts | 5° |
| 2026-05-05 22:58 | -33.69027 | 18.69951 | 10640 ft | 325 kts | 5° |
| 2026-05-05 22:58 | -33.66731 | 18.70188 | 10855 ft | 338 kts | 5° |
| 2026-05-05 22:58 | -33.64341 | 18.70434 | 11062 ft | 350 kts | 5° |
| 2026-05-05 22:59 | -33.61876 | 18.70689 | 11260 ft | 361 kts | 5° |
| 2026-05-05 22:59 | -33.59338 | 18.70951 | 11445 ft | 371 kts | 5° |
| 2026-05-05 22:59 | -33.56736 | 18.71219 | 11617 ft | 380 kts | 5° |
| 2026-05-05 22:59 | -33.54078 | 18.71493 | 11779 ft | 388 kts | 5° |
| 2026-05-05 23:00 | -33.48598 | 18.72057 | 12061 ft | 402 kts | 5° |
| 2026-05-05 23:00 | -33.45793 | 18.72345 | 12249 ft | 406 kts | 5° |
| 2026-05-05 23:00 | -33.42970 | 18.72635 | 12485 ft | 408 kts | 5° |
| 2026-05-05 23:01 | -33.40134 | 18.72927 | 12722 ft | 410 kts | 5° |
| 2026-05-05 23:01 | -33.37281 | 18.73219 | 12957 ft | 412 kts | 5° |
| 2026-05-05 23:01 | -33.34416 | 18.73513 | 13187 ft | 414 kts | 5° |
| 2026-05-05 23:01 | -33.31541 | 18.73807 | 13408 ft | 416 kts | 5° |
| 2026-05-05 23:02 | -33.28650 | 18.74103 | 13626 ft | 417 kts | 5° |
| 2026-05-05 23:02 | -33.25758 | 18.74399 | 13836 ft | 419 kts | 5° |
| 2026-05-05 23:02 | -33.22842 | 18.74697 | 14042 ft | 420 kts | 5° |
| 2026-05-05 23:02 | -33.19926 | 18.74995 | 14239 ft | 422 kts | 5° |
| 2026-05-05 23:03 | -33.16991 | 18.75150 | 14423 ft | 423 kts | 358° |
| 2026-05-05 23:03 | -33.14058 | 18.74796 | 14604 ft | 424 kts | 348° |
| 2026-05-05 23:03 | -33.11207 | 18.73897 | 14788 ft | 425 kts | 341° |
| 2026-05-05 23:03 | -33.08423 | 18.72691 | 14969 ft | 426 kts | 338° |
| 2026-05-05 23:04 | -33.05687 | 18.71320 | 15139 ft | 427 kts | 336° |
| 2026-05-05 23:04 | -33.02965 | 18.69875 | 15301 ft | 429 kts | 335° |
| 2026-05-05 23:04 | -33.00247 | 18.68415 | 15461 ft | 430 kts | 335° |